Wind From: 20-06-2018 11:00 Until: 22:00 warning for: Wind Level: Yellow info button
suomi:
Tuulivaroitus maa-alueille: Länsituuli on voimakasta keskipäivästä alkaen, tuulen nopeus puuskissa 15 m/s.

svenska:
Vindvarning för landområden: Från och med middagen är den västliga vinden kraftigt, i vindbyarna 15 m/s.

english:
Wind warning for land areas: From noon on, strong winds from west may bring strong gusts of 15 m/s. 


Thunder radar more information blitzortung!


Löydät sääaseman tiedot myös:

European Weather Network

Finland Weather Exchange

Weather Underground

AWEKAS



Weather Underground säähistoriasivu

Päivittäin yhteenveto Maaliskuu 1, 2017 Yksiköt:  Englantilaiset    Metriset   Molemmat
« Edellinen Päivä
Seuraava Päivä »
Päivittäin Viikoittain Kuukausittain Vuosittain Mukautettu
  Korkea: Matala: Keskiarvo:
Lämpötila: TemperatureC °F 0.4 °F 1.7 °F
Kastepiste: DewpointC °F 0.0 °F 1 °F
Kosteus: Humidity % 88 % 94 %
Tuulen nopeus: WindSpeedKMH mph 0.0 mph 2.9 mph
Tuulenpuuska: WindSpeedGustKMH mph - -
Tuuli:- - South
Ilmanpaine: PressurehPa in 984.3 in -
Sade: 0.0 in    
Historical Graphs
 
 
Taulukkotiedot Maaliskuu 1, 2017
Aika Lämpötila Kastepiste Ilmanpaine Tuuli Tuulen nopeus Tuulenpuuska Kosteus Sademäärä (tunneittain)
TemperatureC °F DewpointC °F PressurehPa in Calm     Humidity % HourlyPrecipMM in
00:00 2.4 °F 2.0 °F 986.0 in SSE 1.6 mph 9.7 mph 97 % 0.0 in
00:15 2.4 °F 2.0 °F 986.0 in Calm   3.2 mph 97 % 0.0 in
00:30 2.3 °F 1.9 °F 985.7 in Calm     97 % 0.0 in
00:45 2.3 °F 1.9 °F 985.7 in Calm   1.6 mph 97 % 0.0 in
01:00 2.3 °F 1.9 °F 985.3 in Calm     97 % 0.0 in
01:15 2.3 °F 1.9 °F 985.3 in Calm   1.6 mph 97 % 0.0 in
01:30 2.3 °F 1.9 °F 985.3 in Calm     97 % 0.0 in
01:45 2.2 °F 1.8 °F 985.0 in Calm   1.6 mph 97 % 0.0 in
02:00 2.3 °F 1.9 °F 984.6 in Calm   3.2 mph 97 % 0.0 in
02:15 2.2 °F 1.8 °F 984.6 in Calm   4.8 mph 97 % 0.0 in
02:30 2.2 °F 1.7 °F 984.6 in South 1.6 mph 8.0 mph 97 % 0.0 in
02:45 1.9 °F 1.5 °F 984.6 in South 3.2 mph 12.9 mph 97 % 0.0 in
03:00 1.3 °F 0.8 °F 984.6 in South 3.2 mph 11.3 mph 96 % 0.0 in
03:15 0.9 °F 0.3 °F 984.3 in Calm   6.4 mph 96 % 0.0 in
03:30 0.6 °F 0.0 °F 984.3 in Calm     96 % 0.0 in
03:45 0.5 °F 0.1 °F 984.3 in Calm     97 % 0.0 in
04:00 0.4 °F 0.0 °F 984.3 in Calm   3.2 mph 97 % 0.0 in
04:15 0.4 °F 0.0 °F 984.3 in Calm     97 % 0.0 in
04:30 0.4 °F 0.0 °F 984.3 in Calm     97 % 0.0 in
04:45 0.4 °F 0.0 °F 984.3 in Calm     97 % 0.0 in
05:00 0.5 °F 0.1 °F 984.3 in Calm     97 % 0.0 in
05:15 0.5 °F 0.1 °F 984.6 in Calm     97 % 0.0 in
05:30 0.5 °F 0.1 °F 985.0 in Calm     97 % 0.0 in
05:45 0.6 °F 0.1 °F 985.0 in Calm     97 % 0.0 in
06:00 0.6 °F 0.2 °F 985.3 in Calm     97 % 0.0 in
06:15 0.7 °F 0.2 °F 985.3 in Calm     97 % 0.0 in
06:30 0.7 °F 0.3 °F 985.3 in Calm     97 % 0.0 in
06:45 0.8 °F 0.4 °F 985.7 in SSW 1.6 mph 8.0 mph 97 % 0.0 in
07:00 0.9 °F 0.5 °F 985.7 in SSW 3.2 mph 11.3 mph 97 % 0.0 in
07:15 0.9 °F 0.5 °F 986.0 in SSW 6.4 mph 12.9 mph 97 % 0.0 in
07:30 0.9 °F 0.5 °F 986.3 in SSW 4.8 mph 12.9 mph 97 % 0.0 in
07:45 1.1 °F 0.6 °F 986.7 in SSW 8.0 mph 14.5 mph 97 % 0.0 in
08:00 1.1 °F 0.6 °F 986.7 in SSW 8.0 mph 20.9 mph 97 % 0.0 in
08:15 1.1 °F 0.7 °F 987.0 in SSW 6.4 mph 17.7 mph 97 % 0.0 in
08:30 1.2 °F 0.9 °F 987.0 in SSW 8.0 mph 17.7 mph 98 % 0.0 in
08:45 1.3 °F 1.0 °F 987.4 in SSW 4.8 mph 17.7 mph 98 % 0.0 in
09:00 1.3 °F 1.1 °F 987.7 in SSW 8.0 mph 20.9 mph 98 % 0.0 in
09:15 1.4 °F 1.2 °F 987.7 in SSW 8.0 mph 14.5 mph 98 % 0.0 in
09:30 1.5 °F 1.2 °F 988.0 in SSW 9.7 mph 20.9 mph 98 % 0.0 in
09:45 1.5 °F 1.1 °F 988.7 in SSW 9.7 mph 20.9 mph 97 % 0.0 in
10:00 1.5 °F 1.1 °F 989.1 in SSW 9.7 mph 29.0 mph 97 % 0.0 in
10:15 1.5 °F 1.1 °F 989.1 in SSW 9.7 mph 20.9 mph 97 % 0.0 in
10:30 1.5 °F 1.1 °F 989.4 in SSW 8.0 mph 19.3 mph 97 % 0.0 in
10:45 1.4 °F 1.0 °F 989.7 in SSW 9.7 mph 24.1 mph 97 % 0.0 in
11:00 1.4 °F 0.9 °F 989.7 in SSW 6.4 mph 17.7 mph 96 % 0.0 in
11:15 1.4 °F 1.0 °F 990.1 in SSW 8.0 mph 17.7 mph 97 % 0.0 in
11:30 1.5 °F 0.9 °F 990.1 in SSW 8.0 mph 24.1 mph 96 % 0.0 in
11:45 1.5 °F 0.9 °F 990.1 in SSW 6.4 mph 16.1 mph 96 % 0.0 in
12:00 1.5 °F 0.9 °F 990.4 in South 8.0 mph 17.7 mph 96 % 0.0 in
12:15 1.6 °F 1.0 °F 990.4 in SSW 6.4 mph 11.3 mph 96 % 0.0 in
12:30 1.7 °F 1.1 °F 990.4 in SSW 8.0 mph 19.3 mph 96 % 0.0 in
12:45 1.7 °F 1.2 °F 990.4 in SSW 6.4 mph 14.5 mph 96 % 0.0 in
13:00 1.8 °F 1.1 °F 990.7 in SSW 8.0 mph 17.7 mph 95 % 0.0 in
13:15 1.9 °F 1.2 °F 990.7 in SSW 6.4 mph 19.3 mph 95 % 0.0 in
13:30 2.2 °F 1.4 °F 990.7 in SSW 4.8 mph 12.9 mph 95 % 0.0 in
13:45 2.6 °F 1.7 °F 990.7 in SSW 4.8 mph 17.7 mph 94 % 0.0 in
14:00 2.6 °F 1.4 °F 990.7 in SSW 6.4 mph 17.7 mph 92 % 0.0 in
14:15 2.7 °F 1.5 °F 990.7 in SSW 6.4 mph 14.5 mph 92 % 0.0 in
14:30 3.1 °F 1.6 °F 990.4 in South 4.8 mph 12.9 mph 90 % 0.0 in
14:45 3.2 °F 1.5 °F 990.4 in South 4.8 mph 11.3 mph 89 % 0.0 in
15:00 3.4 °F 2.0 °F 990.4 in South 1.6 mph 8.0 mph 90 % 0.0 in
15:15 3.3 °F 1.5 °F 990.4 in SSW 3.2 mph 14.5 mph 88 % 0.0 in
15:30 3.5 °F 1.7 °F 990.4 in South 3.2 mph 17.7 mph 88 % 0.0 in
15:45 3.4 °F 1.6 °F 990.7 in South 3.2 mph 12.9 mph 88 % 0.0 in
16:00 3.1 °F 1.3 °F 990.7 in South 3.2 mph 9.7 mph 88 % 0.0 in
16:15 2.8 °F 1.2 °F 990.4 in South 3.2 mph 12.9 mph 89 % 0.0 in
16:30 2.5 °F 1.0 °F 990.4 in Calm   6.4 mph 90 % 0.0 in
16:45 2.2 °F 1.1 °F 990.4 in Calm   8.0 mph 92 % 0.0 in
17:00 1.9 °F 0.9 °F 990.1 in Calm   6.4 mph 93 % 0.0 in
17:15 1.7 °F 0.7 °F 990.1 in Calm   3.2 mph 93 % 0.0 in
17:30 1.4 °F 0.4 °F 990.1 in Calm   6.4 mph 93 % 0.0 in
17:45 1.2 °F 0.4 °F 990.1 in Calm   3.2 mph 94 % 0.0 in
18:00 1.1 °F 0.4 °F 990.1 in Calm   6.4 mph 95 % 0.0 in
18:15 1.2 °F 0.5 °F 990.1 in Calm   8.0 mph 95 % 0.0 in
18:30 1.3 °F 0.6 °F 990.1 in SSE 1.6 mph 8.0 mph 95 % 0.0 in
18:45 1.4 °F 0.7 °F 990.1 in Calm   8.0 mph 95 % 0.0 in
19:00 1.4 °F 0.7 °F 990.1 in SSE 1.6 mph 12.9 mph 95 % 0.0 in
19:15 1.6 °F 0.8 °F 990.1 in SE 1.6 mph 8.0 mph 95 % 0.0 in
19:30 1.6 °F 0.8 °F 990.4 in Calm   8.0 mph 95 % 0.0 in
19:45 1.6 °F 0.8 °F 990.4 in SSE 1.6 mph 11.3 mph 95 % 0.0 in
20:00 1.6 °F 0.9 °F 990.1 in South 1.6 mph 8.0 mph 95 % 0.0 in
20:15 1.6 °F 0.9 °F 990.1 in Calm   6.4 mph 95 % 0.0 in
20:30 1.7 °F 1.0 °F 990.1 in SSE 1.6 mph 9.7 mph 95 % 0.0 in
20:45 1.8 °F 1.1 °F 990.1 in SE 1.6 mph 8.0 mph 95 % 0.0 in
21:00 1.9 °F 1.0 °F 990.1 in SSE 1.6 mph 9.7 mph 94 % 0.0 in
21:15 1.9 °F 1.1 °F 989.7 in Calm   6.4 mph 94 % 0.0 in
21:30 1.9 °F 1.1 °F 990.1 in Calm   3.2 mph 94 % 0.0 in
21:45 2.0 °F 1.1 °F 989.7 in Calm   4.8 mph 94 % 0.0 in
22:00 2.1 °F 1.2 °F 989.7 in Calm   8.0 mph 94 % 0.0 in
22:15 2.1 °F 1.2 °F 989.7 in Calm   1.6 mph 94 % 0.0 in
22:30 2.1 °F 1.2 °F 989.7 in Calm   8.0 mph 94 % 0.0 in
22:45 2.1 °F 1.2 °F 989.7 in SSE 3.2 mph 14.5 mph 94 % 0.0 in
23:00 2.2 °F 1.3 °F 989.7 in SSE 4.8 mph 17.7 mph 94 % 0.0 in
23:15 2.2 °F 1.4 °F 989.7 in South 3.2 mph 12.9 mph 94 % 0.0 in
23:30 2.2 °F 1.3 °F 989.7 in SSE 1.6 mph 8.0 mph 94 % 0.0 in
23:45 2.1 °F 1.2 °F 989.7 in SSW 1.6 mph 6.4 mph 94 % 0.0 in
Esan sääasema
Terveisin Weather Underground - 2.75 mb

Alkuperäinen skripti  Jim McMurry - jmcmurry@mwt.net Sovitettu myös templatelle  Wim van der Kuil - Leuven-Template.eu

Laitteet joita käytämme:

Sääasema
Davis VP2

Sääasemaohjelma
Cumulus

Sääaseman tietokone
Asus EeePC

Palveluntarjoaja
Suncomet

Davis VP2

Cumulus

Asus EeePC

Suncomet